createdAt,value
2022-11-17T00:02:19.016Z,8.18
2022-11-17T00:05:22.695Z,8.26
2022-11-17T00:08:25.281Z,8.24
2022-11-17T00:11:48.280Z,8.19
2022-11-17T00:14:52.543Z,8.16
2022-11-17T00:18:14.313Z,8.15
2022-11-17T00:21:23.738Z,8.14
2022-11-17T00:24:26.789Z,8.15
2022-11-17T00:27:29.412Z,8.06
2022-11-17T00:30:51.102Z,7.97
2022-11-17T00:34:07.213Z,7.92
2022-11-17T00:37:12.072Z,8.02
2022-11-17T00:40:15.868Z,7.92
2022-11-17T00:43:18.698Z,7.92
2022-11-17T00:46:21.288Z,7.94
2022-11-17T00:49:27.558Z,7.91
2022-11-17T00:52:30.412Z,7.88
2022-11-17T00:55:33.238Z,7.93
2022-11-17T00:58:36.671Z,7.89
2022-11-17T01:01:40.072Z,7.84
2022-11-17T01:04:42.771Z,7.88
2022-11-17T01:07:47.094Z,7.72
2022-11-17T01:10:49.700Z,7.58
2022-11-17T01:13:55.953Z,7.64
2022-11-17T01:16:58.819Z,7.58
2022-11-17T01:20:01.830Z,7.48
2022-11-17T01:23:04.417Z,7.38
2022-11-17T01:26:11.266Z,7.43
2022-11-17T01:29:17.417Z,7.48
2022-11-17T01:32:20.320Z,7.46
2022-11-17T01:35:23.037Z,7.49
2022-11-17T01:38:25.937Z,7.40
2022-11-17T01:41:28.957Z,7.48
2022-11-17T01:45:00.914Z,7.45
2022-11-17T01:48:06.516Z,7.61
2022-11-17T01:51:11.915Z,7.52
2022-11-17T01:54:18.523Z,7.57
2022-11-17T01:57:27.722Z,7.68
2022-11-17T02:00:30.412Z,7.63
2022-11-17T02:03:34.841Z,7.64
2022-11-17T02:06:40.860Z,7.64
2022-11-17T02:09:44.199Z,7.59
2022-11-17T02:12:50.319Z,7.62
2022-11-17T02:15:52.833Z,7.60
2022-11-17T02:18:55.831Z,7.67
2022-11-17T02:22:26.321Z,7.67
2022-11-17T02:25:35.011Z,7.97
2022-11-17T02:28:42.702Z,7.68
2022-11-17T02:32:01.717Z,7.73
2022-11-17T02:35:10.049Z,7.69
2022-11-17T02:38:32.729Z,7.70
2022-11-17T02:41:45.292Z,7.53
2022-11-17T02:44:59.812Z,7.57
2022-11-17T02:48:12.396Z,7.49
2022-11-17T02:51:22.586Z,7.35
2022-11-17T02:54:28.543Z,7.36
2022-11-17T02:57:40.231Z,7.49
2022-11-17T03:01:08.684Z,7.53
2022-11-17T03:04:42.272Z,7.51
2022-11-17T03:07:56.669Z,7.41
2022-11-17T03:10:59.660Z,7.46
2022-11-17T03:14:41.160Z,7.35
2022-11-17T03:18:12.431Z,7.37
2022-11-17T03:21:22.892Z,7.37
2022-11-17T03:24:32.894Z,7.31
2022-11-17T03:27:45.818Z,7.33
2022-11-17T03:30:51.111Z,7.37
2022-11-17T03:33:54.769Z,7.25
2022-11-17T03:37:03.676Z,7.25
2022-11-17T03:40:11.311Z,7.29
2022-11-17T03:43:18.031Z,7.21
2022-11-17T03:46:24.396Z,7.36
2022-11-17T03:49:52.321Z,7.38
2022-11-17T03:52:55.099Z,7.51
2022-11-17T03:56:06.985Z,7.45
2022-11-17T03:59:19.217Z,7.49
2022-11-17T04:02:24.196Z,7.42
2022-11-17T04:05:27.453Z,7.33
2022-11-17T04:08:30.957Z,7.48
2022-11-17T04:11:52.530Z,7.42
2022-11-17T04:15:13.677Z,7.33
2022-11-17T04:18:16.733Z,7.46
2022-11-17T04:21:19.337Z,7.45
2022-11-17T04:24:22.339Z,7.47
2022-11-17T04:27:43.488Z,7.57
2022-11-17T04:30:46.357Z,7.37
2022-11-17T04:33:53.829Z,7.56
2022-11-17T04:36:56.905Z,7.82
2022-11-17T04:39:59.500Z,7.72
2022-11-17T04:43:02.324Z,7.67
2022-11-17T04:46:05.124Z,7.66
2022-11-17T04:49:08.915Z,7.54
2022-11-17T04:52:11.925Z,7.71
2022-11-17T04:55:14.873Z,7.67
2022-11-17T04:58:17.500Z,7.68
2022-11-17T05:01:22.516Z,7.76
2022-11-17T05:04:43.591Z,8.04
2022-11-17T05:07:46.516Z,8.06
2022-11-17T05:11:07.598Z,8.04
2022-11-17T05:14:11.353Z,8.04
2022-11-17T05:17:13.910Z,8.30
2022-11-17T05:20:18.537Z,8.27
2022-11-17T05:23:39.821Z,8.15
2022-11-17T05:26:46.718Z,8.20
2022-11-17T05:29:49.346Z,8.20
2022-11-17T05:32:52.241Z,8.19
2022-11-17T05:35:54.843Z,8.10
2022-11-17T05:38:57.921Z,8.19
2022-11-17T05:42:00.692Z,8.04
2022-11-17T05:45:03.750Z,8.13
2022-11-17T05:48:06.752Z,8.19
2022-11-17T05:51:10.453Z,8.19
2022-11-17T05:54:12.957Z,8.18
2022-11-17T05:57:27.058Z,8.10
2022-11-17T06:00:31.085Z,8.05
2022-11-17T06:03:39.950Z,8.06
2022-11-17T06:06:42.519Z,7.99
2022-11-17T06:09:46.519Z,8.01
2022-11-17T06:12:49.155Z,7.90
2022-11-17T06:15:54.311Z,7.87
2022-11-17T06:19:09.940Z,7.79
2022-11-17T06:22:13.788Z,7.73
2022-11-17T06:25:18.858Z,7.69
2022-11-17T06:28:22.690Z,7.59
2022-11-17T06:31:28.342Z,7.47
2022-11-17T06:34:33.032Z,7.37
2022-11-17T06:37:35.765Z,7.36
2022-11-17T06:40:38.664Z,7.38
2022-11-17T06:43:41.248Z,7.36
2022-11-17T06:46:48.823Z,7.35
2022-11-17T06:49:51.855Z,7.28
2022-11-17T06:52:59.333Z,7.18
2022-11-17T06:56:04.817Z,7.20
2022-11-17T06:59:07.733Z,7.36
2022-11-17T07:02:10.577Z,7.57
2022-11-17T07:05:13.460Z,7.61
2022-11-17T07:08:16.050Z,7.77
2022-11-17T07:11:19.364Z,7.95
2022-11-17T07:14:22.085Z,7.91
2022-11-17T07:17:25.044Z,7.79
2022-11-17T07:20:27.807Z,7.78
2022-11-17T07:23:32.850Z,7.88
2022-11-17T07:26:35.585Z,8.01
2022-11-17T07:29:38.519Z,8.07
2022-11-17T07:32:44.043Z,8.13
2022-11-17T07:35:47.080Z,8.12
2022-11-17T07:38:49.668Z,8.20
2022-11-17T07:41:52.594Z,8.26
2022-11-17T07:44:55.228Z,8.30
2022-11-17T07:48:00.347Z,8.32
2022-11-17T07:51:04.083Z,8.33
2022-11-17T07:54:06.923Z,8.42
2022-11-17T07:57:09.540Z,8.35
2022-11-17T08:00:13.960Z,8.44
2022-11-17T08:03:17.027Z,8.43
2022-11-17T08:06:20.066Z,8.45
2022-11-17T08:09:22.962Z,8.49
2022-11-17T08:12:25.589Z,8.50
2022-11-17T08:15:29.738Z,8.46
2022-11-17T08:18:33.242Z,8.47
2022-11-17T08:21:37.507Z,8.37
2022-11-17T08:24:40.169Z,8.36
2022-11-17T08:27:44.324Z,8.35
2022-11-17T08:30:47.499Z,8.34
2022-11-17T08:33:50.391Z,8.25
2022-11-17T08:36:52.901Z,8.23
2022-11-17T08:39:55.820Z,8.17
2022-11-17T08:43:01.211Z,8.22
2022-11-17T08:46:04.983Z,8.24
2022-11-17T08:49:07.648Z,8.31
2022-11-17T08:52:10.596Z,8.56
2022-11-17T08:55:13.215Z,9.02
2022-11-17T08:58:18.103Z,9.22
2022-11-17T09:01:20.664Z,9.21
2022-11-17T09:04:23.677Z,9.39
2022-11-17T09:07:28.394Z,11.10
2022-11-17T09:10:38.177Z,11.50
2022-11-17T09:13:41.030Z,10.91
2022-11-17T09:16:43.950Z,10.92
2022-11-17T09:19:46.591Z,11.15
2022-11-17T09:22:49.606Z,11.58
2022-11-17T09:25:52.576Z,11.35
2022-11-17T09:28:55.532Z,11.07
2022-11-17T09:31:58.178Z,10.69
2022-11-17T09:35:01.181Z,10.73
2022-11-17T09:38:03.944Z,10.71
2022-11-17T09:41:39.210Z,10.74
2022-11-17T09:44:51.617Z,10.52
2022-11-17T09:48:12.645Z,10.43
2022-11-17T09:51:25.707Z,10.39
2022-11-17T09:54:51.282Z,10.21
2022-11-17T09:58:31.379Z,10.58
2022-11-17T10:01:34.383Z,10.97
2022-11-17T10:04:37.396Z,10.87
2022-11-17T10:07:47.202Z,11.07
2022-11-17T10:10:51.711Z,11.07
2022-11-17T10:13:54.430Z,10.92
2022-11-17T10:16:59.444Z,10.83
2022-11-17T10:20:02.089Z,10.58
2022-11-17T10:23:05.171Z,10.61
2022-11-17T10:26:11.146Z,10.77
2022-11-17T10:29:22.121Z,10.79
2022-11-17T10:32:25.808Z,10.68
2022-11-17T10:35:31.697Z,10.58
2022-11-17T10:38:35.545Z,10.89
2022-11-17T10:41:45.439Z,10.95
2022-11-17T10:44:52.564Z,11.26
2022-11-17T10:48:20.215Z,11.44
2022-11-17T10:51:32.645Z,11.98
2022-11-17T10:54:35.666Z,12.47
2022-11-17T10:57:44.373Z,12.74
2022-11-17T11:00:54.814Z,13.06
2022-11-17T11:03:57.465Z,13.38
2022-11-17T11:07:19.439Z,13.19
2022-11-17T11:10:32.125Z,13.26
2022-11-17T11:13:43.933Z,13.16
2022-11-17T11:16:48.601Z,12.87
2022-11-17T11:19:54.520Z,12.83
2022-11-17T11:23:08.876Z,12.21
2022-11-17T11:26:40.572Z,12.24
2022-11-17T11:30:13.225Z,12.34
2022-11-17T11:33:47.875Z,12.35
2022-11-17T11:37:05.785Z,12.31
2022-11-17T11:40:40.296Z,11.94
2022-11-17T11:44:20.580Z,12.27
2022-11-17T11:47:35.417Z,12.22
2022-11-17T11:50:43.477Z,13.25
2022-11-17T11:53:58.730Z,13.66
2022-11-17T11:57:01.995Z,13.48
2022-11-17T12:00:07.980Z,13.17
2022-11-17T12:03:16.650Z,13.19
2022-11-17T12:06:42.299Z,12.85
2022-11-17T12:09:54.157Z,12.71
2022-11-17T12:12:57.642Z,12.98
2022-11-17T12:16:20.456Z,13.05
2022-11-17T12:19:44.838Z,13.35
2022-11-17T12:23:16.098Z,13.94
2022-11-17T12:26:28.005Z,13.71
2022-11-17T12:29:31.991Z,13.35
2022-11-17T12:32:46.603Z,12.81
2022-11-17T12:36:29.805Z,12.49
2022-11-17T12:39:56.089Z,12.37
2022-11-17T12:43:17.624Z,12.23
2022-11-17T12:46:27.223Z,12.06
2022-11-17T12:50:06.797Z,11.86
2022-11-17T12:53:09.296Z,11.79
2022-11-17T12:56:18.329Z,11.78
2022-11-17T12:59:35.351Z,11.91
2022-11-17T13:02:41.026Z,12.02
2022-11-17T13:05:43.708Z,11.99
2022-11-17T13:09:00.865Z,11.76
2022-11-17T13:12:08.272Z,11.71
2022-11-17T13:15:23.992Z,11.58
2022-11-17T13:18:34.010Z,11.69
2022-11-17T13:21:36.927Z,11.88
2022-11-17T13:24:42.105Z,11.97
2022-11-17T13:27:49.403Z,12.53
2022-11-17T13:30:57.655Z,12.68
2022-11-17T13:34:06.610Z,12.39
2022-11-17T13:37:19.514Z,12.26
2022-11-17T13:40:22.966Z,12.13
2022-11-17T13:43:28.675Z,12.14
2022-11-17T13:46:31.610Z,11.91
2022-11-17T13:49:38.714Z,11.65
2022-11-17T13:52:46.919Z,11.58
2022-11-17T13:55:50.949Z,11.57
2022-11-17T13:58:54.477Z,11.57
2022-11-17T14:02:30.073Z,11.47
2022-11-17T14:05:35.340Z,11.45
2022-11-17T14:08:39.911Z,11.42
2022-11-17T14:11:43.015Z,11.40
2022-11-17T14:14:46.329Z,11.34
2022-11-17T14:18:05.573Z,11.22
2022-11-17T14:21:14.532Z,11.08
2022-11-17T14:24:17.932Z,11.08
2022-11-17T14:27:29.924Z,10.98
2022-11-17T14:30:32.970Z,10.82
2022-11-17T14:33:35.548Z,10.86
2022-11-17T14:36:40.656Z,10.82
2022-11-17T14:39:43.440Z,10.83
2022-11-17T14:42:46.414Z,10.79
2022-11-17T14:45:51.867Z,10.72
2022-11-17T14:48:55.907Z,10.66
2022-11-17T14:51:59.421Z,10.57
2022-11-17T14:55:02.544Z,10.59
2022-11-17T14:58:05.122Z,10.52
2022-11-17T15:01:25.570Z,10.51
2022-11-17T15:04:49.529Z,10.51
2022-11-17T15:07:51.109Z,10.48
2022-11-17T15:10:55.460Z,10.44
2022-11-17T15:14:05.590Z,10.34
2022-11-17T15:17:13.843Z,10.38
2022-11-17T15:20:17.845Z,10.31
2022-11-17T15:23:20.426Z,10.31
2022-11-17T15:26:26.375Z,10.34
2022-11-17T15:29:28.966Z,10.38
2022-11-17T15:32:32.896Z,10.32
2022-11-17T15:35:36.448Z,10.20
2022-11-17T15:38:40.639Z,10.33
2022-11-17T15:41:44.062Z,10.47
2022-11-17T15:44:46.943Z,10.52
2022-11-17T15:47:49.943Z,10.75
2022-11-17T15:50:57.943Z,10.75
2022-11-17T15:54:00.769Z,10.87
2022-11-17T15:57:04.229Z,10.82
2022-11-17T16:00:07.673Z,10.82
2022-11-17T16:03:12.921Z,10.87
2022-11-17T16:06:15.460Z,10.96
2022-11-17T16:09:18.574Z,10.97
2022-11-17T16:12:21.218Z,11.01
2022-11-17T16:15:24.155Z,11.04
2022-11-17T16:18:26.876Z,11.04
2022-11-17T16:21:29.876Z,11.12
2022-11-17T16:24:32.514Z,11.07
2022-11-17T16:27:35.396Z,10.94
2022-11-17T16:30:38.049Z,10.80
2022-11-17T16:33:41.329Z,10.80
2022-11-17T16:36:44.404Z,10.87
2022-11-17T16:39:47.265Z,10.83
2022-11-17T16:42:50.015Z,10.72
2022-11-17T16:45:52.995Z,10.85
2022-11-17T16:48:56.569Z,10.59
2022-11-17T16:51:59.831Z,10.69
2022-11-17T16:55:05.177Z,10.67
2022-11-17T16:58:10.384Z,10.67
2022-11-17T17:01:15.126Z,10.77
2022-11-17T17:04:18.509Z,10.81
2022-11-17T17:07:24.202Z,10.70
2022-11-17T17:10:29.235Z,10.78
2022-11-17T17:13:32.141Z,10.81
2022-11-17T17:16:37.012Z,10.69
2022-11-17T17:19:39.620Z,10.58
2022-11-17T17:22:43.517Z,10.76
2022-11-17T17:25:46.781Z,10.77
2022-11-17T17:28:51.984Z,10.73
2022-11-17T17:31:55.096Z,10.76
2022-11-17T17:34:58.771Z,10.83
2022-11-17T17:38:01.922Z,10.67
2022-11-17T17:41:15.458Z,10.56
2022-11-17T17:44:22.085Z,10.50
2022-11-17T17:47:25.252Z,10.55
2022-11-17T17:50:28.127Z,10.54
2022-11-17T17:53:31.300Z,10.43
2022-11-17T17:56:35.277Z,10.37
2022-11-17T17:59:38.473Z,10.43
2022-11-17T18:02:41.400Z,10.46
2022-11-17T18:05:44.723Z,10.40
2022-11-17T18:08:48.314Z,10.63
2022-11-17T18:11:51.651Z,10.50
2022-11-17T18:14:54.370Z,10.29
2022-11-17T18:17:59.084Z,10.27
2022-11-17T18:21:04.253Z,10.03
2022-11-17T18:24:07.995Z,9.83
2022-11-17T18:27:11.689Z,9.65
2022-11-17T18:30:16.291Z,9.54
2022-11-17T18:33:19.322Z,9.65
2022-11-17T18:36:23.041Z,9.67
2022-11-17T18:39:27.915Z,9.83
2022-11-17T18:42:32.805Z,9.75
2022-11-17T18:45:37.667Z,9.72
2022-11-17T18:48:43.351Z,9.72
2022-11-17T18:51:48.073Z,9.71
2022-11-17T18:54:50.946Z,9.80
2022-11-17T18:57:53.543Z,9.86
2022-11-17T19:01:10.406Z,9.96
2022-11-17T19:04:15.210Z,9.81
2022-11-17T19:07:18.642Z,9.59
2022-11-17T19:10:21.886Z,9.61
2022-11-17T19:13:26.140Z,9.57
2022-11-17T19:16:29.686Z,9.46
2022-11-17T19:19:33.079Z,9.31
2022-11-17T19:22:35.646Z,9.27
2022-11-17T19:25:41.000Z,9.33
2022-11-17T19:28:45.067Z,9.64
2022-11-17T19:31:48.876Z,9.44
2022-11-17T19:34:52.001Z,9.20
2022-11-17T19:37:58.786Z,8.90
2022-11-17T19:41:05.946Z,8.93
2022-11-17T19:44:09.808Z,9.02
2022-11-17T19:47:12.690Z,9.11
2022-11-17T19:50:16.302Z,9.05
2022-11-17T19:53:19.562Z,9.03
2022-11-17T19:56:24.250Z,9.02
2022-11-17T19:59:27.318Z,8.99
2022-11-17T20:02:30.802Z,8.96
2022-11-17T20:05:36.579Z,8.85
2022-11-17T20:08:40.191Z,8.86
2022-11-17T20:11:44.219Z,9.03
2022-11-17T20:14:47.989Z,9.08
2022-11-17T20:17:51.380Z,9.12
2022-11-17T20:20:55.113Z,9.14
2022-11-17T20:23:59.433Z,9.21
2022-11-17T20:27:02.423Z,9.22
2022-11-17T20:30:07.230Z,9.27
2022-11-17T20:33:13.158Z,9.36
2022-11-17T20:36:19.611Z,9.46
2022-11-17T20:39:22.278Z,9.42
2022-11-17T20:42:25.561Z,9.28
2022-11-17T20:45:29.636Z,9.44
2022-11-17T20:48:34.722Z,9.56
2022-11-17T20:51:37.876Z,9.45
2022-11-17T20:54:41.526Z,9.37
2022-11-17T20:57:44.396Z,9.50
2022-11-17T21:00:48.311Z,9.54
2022-11-17T21:03:52.920Z,9.63
2022-11-17T21:07:00.084Z,9.72
2022-11-17T21:10:02.865Z,9.44
2022-11-17T21:13:05.952Z,9.55
2022-11-17T21:16:14.977Z,9.65
2022-11-17T21:19:19.008Z,9.68
2022-11-17T21:22:21.759Z,9.78
2022-11-17T21:25:24.930Z,9.65
2022-11-17T21:28:38.739Z,9.61
2022-11-17T21:31:42.257Z,9.50
2022-11-17T21:34:49.655Z,9.55
2022-11-17T21:37:52.775Z,9.67
2022-11-17T21:40:55.417Z,9.66
2022-11-17T21:44:00.141Z,9.50
2022-11-17T21:47:02.741Z,9.33
2022-11-17T21:50:06.233Z,9.19
2022-11-17T21:53:08.726Z,9.40
2022-11-17T21:56:12.564Z,9.43
2022-11-17T21:59:17.225Z,9.42
2022-11-17T22:02:22.270Z,9.51
2022-11-17T22:05:25.094Z,9.46
2022-11-17T22:08:27.739Z,9.20
2022-11-17T22:11:38.307Z,8.99
2022-11-17T22:14:41.223Z,8.90
2022-11-17T22:17:44.176Z,8.86
2022-11-17T22:20:53.301Z,8.82
2022-11-17T22:23:56.318Z,9.09
2022-11-17T22:26:58.938Z,9.21
2022-11-17T22:30:01.876Z,9.33
2022-11-17T22:33:04.737Z,9.29
2022-11-17T22:36:08.044Z,9.29
2022-11-17T22:39:10.780Z,9.41
2022-11-17T22:42:15.575Z,9.48
2022-11-17T22:45:18.329Z,9.59
2022-11-17T22:48:21.355Z,9.48
2022-11-17T22:51:43.553Z,9.32
2022-11-17T22:54:46.500Z,9.24
2022-11-17T22:57:49.101Z,9.31
2022-11-17T23:00:53.145Z,9.21
2022-11-17T23:03:55.776Z,9.29
2022-11-17T23:06:58.825Z,9.21
2022-11-17T23:10:02.126Z,9.24
2022-11-17T23:13:05.240Z,9.33
2022-11-17T23:16:08.300Z,9.31
2022-11-17T23:19:14.357Z,9.46
2022-11-17T23:22:17.785Z,9.51
2022-11-17T23:25:21.071Z,9.62
2022-11-17T23:28:23.587Z,9.65
2022-11-17T23:31:29.472Z,9.48
2022-11-17T23:34:33.120Z,9.37
2022-11-17T23:37:36.063Z,9.35
2022-11-17T23:40:38.630Z,9.40
2022-11-17T23:43:42.400Z,9.39
2022-11-17T23:46:44.979Z,9.43
2022-11-17T23:49:47.841Z,9.48
2022-11-17T23:52:50.428Z,9.45
2022-11-17T23:55:57.565Z,9.45
2022-11-17T23:59:00.482Z,9.56
